Logo AVAMET
Benvolgut visitant, si us plau, ingressa Recuperar contrasenya
AVAMET paisatges
Union Alcoyana

Dénia Montgó

Dades diàries. Acumulats / Últims 30 dies disponibles

Data Temperatura (°C) Humitat rel. (%) Pressió rel. (hPa) Vent (km/h) Precipitació
Mínima Mitjana Màxima Amplitud
tèrmica
Mínima Mitjana Màxima Mínima Mitjana Màxima Predom. Mitjana Ràfega
màxima
Total
(mm)
Índex-n
Mínima Mitjana Màxima Mínima Mitjana Màxima n
0 a 1
P0 max
mm 5'
Dades mensuals acumulades fins l'últim dia disponible
04/2021 9,6 12,0 14,8 14,3 12,9 16,9 24,8 15,2 35 79 99 1.008 1.018 1.026   7,4 48,1 30,6
Dades anuals acumulades fins l'últim dia disponible
2021 4,8 11,2 19,3 13,5 7,8 16,1 27,1 22,3 27 72 99 1.001 1.019 1.036   9,3 102,1 304,2
Últims 30 dies disponibles
16-04-2021 9,6     12,3     14,9 5,3 62 78 93 1.015 1.017 1.019 NNE 8,9 33,3 2,3
15-04-2021 10,0     12,1     13,5 3,5 90 93 95 1.016 1.017 1.018 NE 6,8 27,8 9,5 0,09 0,30
14-04-2021 12,4     13,6     14,9 2,5 76 83 90 1.018 1.020 1.022 E 5,1 29,8 0,5
13-04-2021 11,8     14,3     16,9 5,1 64 79 93 1.021 1.023 1.025 E 9,8 42,5 0,0
12-04-2021 13,0     13,8     14,8 1,8 66 79 92 1.019 1.023 1.025 NE 10,2 37,0 0,0
11-04-2021 12,6     16,4     20,2 7,6 57 77 97 1.012 1.014 1.019 SE 10,0 40,7 3,3 0,38 1,50
10-04-2021 11,8     12,5     13,8 2,0 91 95 99 1.013 1.016 1.019 NE 3,4 31,4 10,6 0,51 0,60
09-04-2021 10,7     11,7     12,9 2,2 78 87 96 1.018 1.021 1.023 N 3,8 22,2 2,6 0,51 0,70
08-04-2021 10,9     12,5     14,6 3,7 52 66 79 1.022 1.024 1.026 E 6,9 25,9 0,0
07-04-2021 10,4     12,8     14,9 4,5 75 85 95 1.012 1.019 1.025 ENE 10,5 38,9 1,3
06-04-2021 14,8     19,6     24,8 10,0 35 63 91 1.008 1.011 1.015 SE 8,0 42,5 0,0
05-04-2021 11,8     15,4     18,9 7,1 60 74 87 1.015 1.017 1.019 SE 11,1 48,1 0,0
04-04-2021 12,2     14,6     16,3 4,1 70 84 98 1.011 1.015 1.019 ENE 4,7 29,6 0,0
03-04-2021 14,6     16,6     19,3 4,7 43 65 87 1.010 1.012 1.013 ESE 5,9 37,0 0,0
02-04-2021 13,5     17,3     22,9 9,4 45 70 94 1.011 1.014 1.017 SSE 7,2 35,1 0,5
01-04-2021 11,8     13,5     16,3 4,5 71 84 97 1.016 1.019 1.017 N 5,4 18,5 0,0
31-03-2021 11,1     12,9     15,7 4,6 69 90 98 1.022 1.025 1.027 O 5,3 26,3 0,0
30-03-2021 12,7     14,0     16,7 4,0 76 87 98 1.027 1.029 1.030 SE 5,6 24,1 0,0
29-03-2021 12,3     13,4     15,0 2,7 87 93 98 1.028 1.030 1.031 NNO 7,7 29,6 0,0
28-03-2021 12,4     13,2     14,6 2,2 81 87 93 1.028 1.030 1.031 NNO 7,7 25,9 0,0
27-03-2021 12,9     13,7     14,8 1,9 85 91 97 1.021 1.026 1.029 N 9,9 33,3 0,0
26-03-2021 11,4     15,5     21,1 9,7 36 66 96 1.019 1.021 1.024 SE 7,3 51,8 0,0
25-03-2021 11,3     14,6     20,5 9,2 53 76 99 1.021 1.023 1.025 SSE 6,0 46,3 0,0
24-03-2021 11,6     14,0     17,2 5,6 73 84 95 1.022 1.024 1.026 ESE 7,5 40,7 0,0
23-03-2021 11,4     14,5     17,9 6,5 45 70 95 1.019 1.021 1.023 SE 8,0 48,1 0,0
22-03-2021 10,5     13,5     15,8 5,3 41 56 71 1.015 1.017 1.019 SE 9,5 51,8 0,0
21-03-2021 7,2     11,4     16,2 9,0 28 58 88 1.015 1.018 1.020 SSE 9,0 37,0 0,5
20-03-2021 6,8     9,4     11,0 4,2 60 77 93 1.012 1.015 1.019 NNE 17,1 55,5 2,8
19-03-2021 7,7     9,2     11,1 3,4 59 74 89 1.010 1.013 1.027 NNE 7,5 42,5 0,5
18-03-2021 6,3     9,9     16,2 9,9 55 77 98 1.016 1.018 1.020 SSO 8,2 35,1 35,8 0,41 1,10
Últims 13 mesos disponibles
03/2021 6,3 11,0 13,4 13,3 11,0 15,9 21,6 15,3 53 78 98 1.013 1.022 1.030 SE 8,3 55,5 125,2
02/2021 9,7 12,3 17,1 14,2 13,6 16,8 22,3 12,6 49 73 92 1.003 1.019 1.034 SO 9,2 66,6 6,5
01/2021 4,8 10,1 19,3 12,5 7,8 15,4 27,1 22,3 33 61 98 1.005 1.016 1.027 OSO 11,3 102,1 141,9
12/2020 6,6 11,1 16,3 13,6 11,8 16,3 22,4 15,8 35 61 86 998 1.014 1.027 OSO 11,1 75,8 5,1
11/2020 11,1 14,6 17,8 16,7 14,3 19,1 25,1 14,0 56 80 96 1.006 1.022 1.029 SE 6,6 48,1 186,9
10/2020 12,4 16,6 20,7 19,7 17,9 22,9 28,0 15,6 42 61 81 999 1.017 1.025 SO 10,3 59,2 5,9
09/2020 16,6 20,9 24,2 23,6 23,1 26,4 30,2 13,6 40 67 83 1.011 1.017 1.023 SE 9,6 59,2 12,0
08/2020 18,1 24,0 25,4 27,2 24,1 30,8 38,4 20,3 48 67 87 943 1.012 1.019 SE 11,2 62,9 130,3
07/2020 21,3 23,5 25,7 26,1 26,7 29,5 35,6 14,3 54 70 85 1.011 1.016 1.020 SE 10,8 72,2 2,3
06/2020 15,3 20,1 23,0 23,4 20,2 27,2 31,1 15,8 43 67 86 1.005 1.014 1.021 NE 10,1 62,9 31,3
05/2020 13,2 17,8 21,8 21,2 18,8 24,9 29,6 16,4 47 67 86 1.005 1.017 1.027 NNE 9,8 59,2 11,7
04/2020 10,8 13,4 16,4 15,6 13,7 18,3 23,3 12,5 48 78 99 1.006 1.016 1.025 NNE 8,3 48,1 82,7
03/2020 8,3 12,1 17,5 14,6 10,8 17,6 24,6 16,3 43 73 97 1.007 1.017 1.026 OSO 10,7 83,3 94,4
Tots els anys disponibles
2020 6,6 16,6 25,7 19,3 10,8 22,4 38,4 31,8 35 69 99 943 1.017 1.032 SE 9,6 83,3 690,6
2019 5,9 16,1 26,8 19,0 9,9 22,2 38,7 32,8 20 66 99 945 1.016 1.032 SE 9,9 88,8 795,4
2018 4,2 16,3 27,3 18,9 7,3 22,0 35,8 31,6 39 69 98 992 1.015 1.033 SE 10,6 81,4 556,8
2017 0,6 16,0 26,4 19,1 8,6 22,4 36,1 35,5 35 69 97 997 1.017 1.034 SE 3,4 83,0 685,3
Temperatura (°C)
Humitat relativa (%)
Velocitat del vent i ràfega màxima (km/h)
Direcció del vent (°)
Pressió (hPa)
Precipitació (mm)
Nota sobre les dades: s'avisa a l'usuari de la provisionalitat i no oficialitat d'aquestes dades
Logo AVAMET blanc
Web allotjada a Sollutia
Llicència de Creative CommonsLa web d'AVAMET i els seus continguts estan subjectes a una llicència de
Reconeixement - No Comercial - Compartir igual
Avís legal - Política de privacitat - Política de cookies
NOVES ESTACIONS: Vilafranca - la Pobla del Bellestar (Ajuntament/Soci), la Serratella (Ajuntament/Soci),  Xixona - Cantal del Tormo (Soci),  Castelló de la Plana - Edifici Capitol (Soci),  Algimia de Almonacid (Soci),  Ontinyent - Ombría dels Frares (Soci), Confrides - Font de Fuster - - -